KMPZ/MPZ METAR and TAF weather

Enter ICAO airport designator
Station Type Date Time Source
KMPZ METAR 2019/10/23 20:15 UTC NOAA

KMPZ 232015Z AUTO 15007KT 10SM BKN110 15/06 A2982 RMK AO2


Station Type Date Time Source
KMPZ Decoded METAR 2019/10/23 20:15 UTC NOAA

Mount Pleasant, Mount Pleasant Municipal Airport, IA, United States (KMPZ) 40-56-48N 091-30-40W
Oct 23, 2019 - 04:15 PM EDT / 2019.10.23 2015 UTC
Wind: from the SSE (150 degrees) at 8 MPH (7 KT):0
Visibility: 10 mile(s):0
Sky conditions: mostly cloudy
Temperature: 59 F (15 C)
Dew Point: 42 F (6 C)
Relative Humidity: 54%
Pressure (altimeter): 29.82 in. Hg (1009 hPa)
ob: KMPZ 232015Z AUTO 15007KT 10SM BKN110 15/06 A2982 RMK AO2
cycle: 20

Station Type Date Time Source
KMPZ TAF UTC NOAA

Error!

Example: see airport list